createdAt,value
2022-11-16T00:07:37.531Z,99511.94
2022-11-16T00:17:39.073Z,99495.53
2022-11-16T00:27:40.408Z,99487.00
2022-11-16T00:37:41.804Z,99486.94
2022-11-16T00:47:43.136Z,99474.78
2022-11-16T00:57:44.458Z,99473.03
2022-11-16T01:07:46.333Z,99466.16
2022-11-16T01:17:48.167Z,99461.06
2022-11-16T01:27:49.560Z,99456.69
2022-11-16T01:37:50.898Z,99451.50
2022-11-16T01:47:54.193Z,99448.97
2022-11-16T01:57:56.299Z,99448.38
2022-11-16T02:08:53.468Z,99449.19
2022-11-16T02:19:07.271Z,99432.84
2022-11-16T02:29:28.627Z,99429.38
2022-11-16T02:39:32.601Z,99415.75
2022-11-16T02:49:39.008Z,99418.06
2022-11-16T02:59:44.475Z,99396.53
2022-11-16T03:09:48.430Z,99393.22
2022-11-16T03:20:11.373Z,99390.75
2022-11-16T03:30:21.074Z,99382.19
2022-11-16T03:40:27.831Z,99390.69
2022-11-16T03:50:29.185Z,99395.09
2022-11-16T04:00:30.670Z,99405.50
2022-11-16T04:10:50.598Z,99409.09
2022-11-16T04:21:10.394Z,99409.22
2022-11-16T04:31:30.157Z,99412.59
2022-11-16T04:41:50.935Z,99420.41
2022-11-16T04:51:52.356Z,99429.03
2022-11-16T05:02:09.168Z,99434.34
2022-11-16T05:12:25.481Z,99434.50
2022-11-16T05:22:26.900Z,99439.69
2022-11-16T05:32:28.284Z,99453.78
2022-11-16T05:42:29.601Z,99464.13
2022-11-16T05:52:30.948Z,99483.97
2022-11-16T06:02:33.355Z,99483.31
2022-11-16T06:12:34.698Z,99495.31
2022-11-16T06:22:36.030Z,99501.31
2022-11-16T06:32:37.410Z,99507.44
2022-11-16T06:42:38.760Z,99521.97
2022-11-16T06:52:40.078Z,99536.81
2022-11-16T07:02:41.445Z,99556.03
2022-11-16T07:12:42.815Z,99568.34
2022-11-16T07:22:44.128Z,99580.56
2022-11-16T07:32:45.540Z,99576.41
2022-11-16T07:42:47.359Z,99579.09
2022-11-16T07:52:48.679Z,99614.59
2022-11-16T08:02:50.249Z,99643.22
2022-11-16T08:12:51.593Z,99633.75
2022-11-16T08:22:52.980Z,99632.19
2022-11-16T08:32:54.362Z,99629.66
2022-11-16T08:42:58.350Z,99647.00
2022-11-16T08:53:00.149Z,99667.78
2022-11-16T09:03:01.692Z,99669.66
2022-11-16T09:13:03.623Z,99695.75
2022-11-16T09:23:04.999Z,99702.63
2022-11-16T09:33:06.305Z,99722.63
2022-11-16T09:43:38.446Z,99715.75
2022-11-16T09:53:48.532Z,99715.66
2022-11-16T10:03:53.898Z,99723.25
2022-11-16T10:14:13.709Z,99722.22
2022-11-16T10:24:34.130Z,99715.09
2022-11-16T10:34:55.854Z,99700.09
2022-11-16T10:44:59.976Z,99692.84
2022-11-16T10:55:01.400Z,99685.53
2022-11-16T11:05:21.518Z,99679.56
2022-11-16T11:15:27.079Z,99680.38
2022-11-16T11:25:32.698Z,99667.97
2022-11-16T11:35:34.610Z,99662.72
2022-11-16T11:45:47.616Z,99644.44
2022-11-16T11:55:55.656Z,99644.38
2022-11-16T12:06:08.265Z,99640.75
2022-11-16T12:16:25.184Z,99618.13
2022-11-16T12:27:07.761Z,99610.97
2022-11-16T12:37:33.011Z,99619.66
2022-11-16T12:47:59.089Z,99602.97
2022-11-16T12:58:32.219Z,99588.34
2022-11-16T13:08:47.487Z,99578.72
2022-11-16T13:18:50.679Z,99566.66
2022-11-16T13:29:00.364Z,99549.28
2022-11-16T13:39:01.680Z,99547.41
2022-11-16T13:49:03.268Z,99526.81
2022-11-16T13:59:04.642Z,99530.25
2022-11-16T14:09:43.298Z,99500.69
2022-11-16T14:19:45.317Z,99497.50
2022-11-16T14:30:03.600Z,99511.31
2022-11-16T14:40:08.707Z,99504.47
2022-11-16T14:50:24.593Z,99502.19
2022-11-16T15:00:26.380Z,99508.38
2022-11-16T15:10:29.066Z,99505.84
2022-11-16T15:20:33.774Z,99484.09
2022-11-16T15:30:37.884Z,99481.41
2022-11-16T15:40:40.042Z,99466.22
2022-11-16T15:51:06.438Z,99478.75
2022-11-16T16:01:09.794Z,99459.25
2022-11-16T16:11:26.879Z,99440.63
2022-11-16T16:21:43.714Z,99428.06
2022-11-16T16:31:45.059Z,99429.34
2022-11-16T16:41:46.481Z,99427.19
2022-11-16T16:51:48.134Z,99416.34
2022-11-16T17:01:53.210Z,99406.53
2022-11-16T17:11:54.531Z,99406.28
2022-11-16T17:21:56.083Z,99400.50
2022-11-16T17:31:57.419Z,99388.59
2022-11-16T17:41:58.757Z,99379.41
2022-11-16T17:52:01.226Z,99374.50
2022-11-16T18:02:02.581Z,99361.72
2022-11-16T18:12:04.098Z,99352.47
2022-11-16T18:22:05.508Z,99344.72
2022-11-16T18:32:07.161Z,99343.16
2022-11-16T18:42:11.331Z,99339.81
2022-11-16T18:52:12.695Z,99345.22
2022-11-16T19:02:14.045Z,99345.50
2022-11-16T19:12:15.442Z,99337.53
2022-11-16T19:22:16.770Z,99312.78
2022-11-16T19:32:18.105Z,99307.78
2022-11-16T19:42:19.607Z,99292.44
2022-11-16T19:52:21.054Z,99279.63
2022-11-16T20:02:22.409Z,99259.59
2022-11-16T20:12:23.752Z,99258.47
2022-11-16T20:22:25.074Z,99233.31
2022-11-16T20:32:26.461Z,99209.84
2022-11-16T20:42:27.820Z,99195.81
2022-11-16T20:52:29.264Z,99180.81
2022-11-16T21:02:31.010Z,99181.50
2022-11-16T21:12:50.792Z,99162.44
2022-11-16T21:22:52.150Z,99139.94
2022-11-16T21:32:53.489Z,99138.16
2022-11-16T21:42:54.899Z,99113.09
2022-11-16T21:52:56.192Z,99094.00
2022-11-16T22:02:57.614Z,99070.50
2022-11-16T22:12:59.285Z,99038.53
2022-11-16T22:23:00.702Z,99014.34
2022-11-16T22:33:02.088Z,99007.38
2022-11-16T22:43:03.408Z,98990.88
2022-11-16T22:53:04.815Z,98974.50
2022-11-16T23:03:06.257Z,98950.13
2022-11-16T23:13:28.383Z,98915.66
2022-11-16T23:23:48.110Z,98905.19
2022-11-16T23:33:49.437Z,98882.56
2022-11-16T23:44:00.292Z,98860.31
2022-11-16T23:54:01.718Z,98826.75
